Time;durP1;ratioP1;P1;durP2;ratioP2;P2;SDS_P1;SDS_P2;PMS_P1;PMS_P2;Temp;Humidity;BMP_temperature;BMP_pressure;BME280_temperature;BME280_humidity;BME280_pressure;Samples;Min_cycle;Max_cycle;Signal;HPM_P1;HPM_P2
2021/01/15 00:00:32;;;;;;;4.18;2.58;;;21.90;49.50;;;;;;4972463;28;20031;-72
2021/01/15 00:02:59;;;;;;;6.35;2.63;;;22.00;49.30;;;;;;4975513;28;20026;-71
2021/01/15 00:05:25;;;;;;;6.20;2.28;;;22.00;49.60;;;;;;4974813;28;20023;-72
2021/01/15 00:07:51;;;;;;;4.03;1.98;;;22.00;49.70;;;;;;4976193;28;20035;-72
2021/01/15 00:10:18;;;;;;;8.27;2.58;;;22.00;49.80;;;;;;4971968;28;20030;-72
2021/01/15 00:12:44;;;;;;;9.15;2.90;;;21.90;49.90;;;;;;4975451;28;20475;-73
2021/01/15 00:15:11;;;;;;;6.07;2.47;;;21.80;49.40;;;;;;4973395;28;20031;-72
2021/01/15 00:17:38;;;;;;;4.55;2.63;;;21.70;49.30;;;;;;4974332;28;20027;-72
2021/01/15 00:20:06;;;;;;;3.63;2.50;;;21.60;49.80;;;;;;4976138;28;20027;-72
2021/01/15 00:22:32;;;;;;;6.00;1.77;;;21.70;50.30;;;;;;4971227;28;20465;-73
2021/01/15 00:24:58;;;;;;;4.93;1.88;;;21.60;48.70;;;;;;4976855;28;20042;-73
2021/01/15 00:27:25;;;;;;;8.57;2.45;;;21.60;48.00;;;;;;4976534;28;20031;-72
2021/01/15 00:29:51;;;;;;;2.17;1.75;;;21.50;48.50;;;;;;4973416;28;20127;-72
2021/01/15 00:32:18;;;;;;;5.93;1.67;;;21.40;48.20;;;;;;4975563;28;20041;-71
2021/01/15 00:34:44;;;;;;;6.35;2.42;;;21.30;48.10;;;;;;4967753;28;20034;-71
2021/01/15 00:37:11;;;;;;;4.65;2.17;;;21.20;48.60;;;;;;4967547;28;20033;-72
2021/01/15 00:39:37;;;;;;;3.58;1.83;;;21.10;48.80;;;;;;4968273;28;20218;-72
2021/01/15 00:42:04;;;;;;;6.20;1.70;;;21.10;49.50;;;;;;4969587;28;20046;-72
2021/01/15 00:44:30;;;;;;;2.28;1.90;;;21.30;50.10;;;;;;4975376;28;20027;-72
2021/01/15 00:46:56;;;;;;;2.65;2.08;;;21.30;50.20;;;;;;4970849;28;20054;-72
2021/01/15 00:49:23;;;;;;;4.75;1.88;;;21.40;50.30;;;;;;4975674;28;20015;-72
2021/01/15 00:51:51;;;;;;;5.10;2.30;;;21.40;50.60;;;;;;4972450;28;20243;-72
2021/01/15 00:54:18;;;;;;;9.55;2.33;;;21.20;50.30;;;;;;4966440;28;20031;-72
2021/01/15 00:56:44;;;;;;;7.05;1.95;;;21.30;50.20;;;;;;4964426;28;20112;-72
2021/01/15 00:59:11;;;;;;;9.18;3.40;;;21.10;50.00;;;;;;4969265;28;20353;-72
2021/01/15 01:01:38;;;;;;;5.93;3.03;;;20.80;50.50;;;;;;4972707;28;20031;-71
2021/01/15 01:04:06;;;;;;;8.43;2.65;;;20.60;50.90;;;;;;4973187;28;20464;-72
2021/01/15 01:06:32;;;;;;;9.77;3.78;;;20.40;51.30;;;;;;4981940;28;20026;-75
2021/01/15 01:09:02;;;;;;;8.98;4.65;;;20.20;51.40;;;;;;4975501;28;20027;-72
2021/01/15 01:11:30;;;;;;;13.55;4.03;;;20.10;51.70;;;;;;4967949;28;20109;-72
2021/01/15 01:13:58;;;;;;;4.20;2.47;;;20.30;51.30;;;;;;4966826;28;20034;-72
2021/01/15 01:16:26;;;;;;;4.93;2.55;;;20.10;51.10;;;;;;4973225;28;20034;-74
2021/01/15 01:18:54;;;;;;;7.40;2.33;;;19.90;51.40;;;;;;4975647;28;20346;-73
2021/01/15 01:21:21;;;;;;;5.05;2.58;;;19.70;51.70;;;;;;4973011;28;20100;-72
2021/01/15 01:23:47;;;;;;;10.63;2.17;;;19.60;51.90;;;;;;4972415;28;20074;-72
2021/01/15 01:26:14;;;;;;;3.08;2.33;;;19.40;52.30;;;;;;4974995;28;20027;-72
2021/01/15 01:28:42;;;;;;;10.10;3.28;;;19.20;52.20;;;;;;4970845;28;20087;-72
2021/01/15 01:31:10;;;;;;;4.70;3.22;;;19.20;52.50;;;;;;4969425;28;20146;-72
2021/01/15 01:33:37;;;;;;;9.77;4.40;;;18.90;53.30;;;;;;4971164;28;20106;-72
2021/01/15 01:36:04;;;;;;;7.95;4.57;;;18.70;53.10;;;;;;4976421;28;20018;-72
2021/01/15 01:38:31;;;;;;;4.78;3.78;;;18.60;54.10;;;;;;4975570;28;20448;-72
2021/01/15 01:40:58;;;;;;;13.63;5.40;;;18.50;54.20;;;;;;4976373;28;20376;-72
2021/01/15 01:43:24;;;;;;;9.40;3.90;;;18.50;53.90;;;;;;4965357;28;20050;-72
2021/01/15 01:45:51;;;;;;;12.95;5.05;;;18.50;53.70;;;;;;4970071;28;20102;-72
2021/01/15 01:48:19;;;;;;;7.68;3.85;;;18.40;54.40;;;;;;4971448;28;20100;-72
2021/01/15 01:50:47;;;;;;;9.35;4.40;;;18.20;55.10;;;;;;4974144;28;20034;-72
2021/01/15 01:53:18;;;;;;;10.27;5.95;;;18.10;54.00;;;;;;4967347;28;20020;-72
2021/01/15 01:55:46;;;;;;;11.50;5.10;;;18.00;55.00;;;;;;4971481;28;20062;-72
2021/01/15 01:58:16;;;;;;;12.05;5.25;;;18.00;54.40;;;;;;4975119;28;20028;-72
2021/01/15 02:00:44;;;;;;;10.32;4.80;;;17.80;54.30;;;;;;4974986;28;20053;-72
2021/01/15 02:03:16;;;;;;;10.52;3.33;;;17.80;55.20;;;;;;4983760;28;20042;-72
2021/01/15 02:05:42;;;;;;;7.28;2.33;;;17.80;54.50;;;;;;4973137;28;20097;-73
2021/01/15 02:08:09;;;;;;;5.55;2.60;;;17.80;55.30;;;;;;4977246;28;20519;-76
2021/01/15 02:11:12;;;;;;;6.05;2.50;;;17.60;56.00;;;;;;4975805;28;20372;-74
2021/01/15 02:13:59;;;;;;;12.40;3.78;;;17.50;55.20;;;;;;4971648;28;20019;-73
2021/01/15 02:16:29;;;;;;;7.75;4.25;;;17.50;55.10;;;;;;4960372;28;20088;-73
2021/01/15 02:19:18;;;;;;;10.93;4.43;;;17.60;56.00;;;;;;4974729;28;20027;-72
2021/01/15 02:22:03;;;;;;;9.70;4.03;;;17.70;55.80;;;;;;4974910;28;20046;-74
2021/01/15 02:24:35;;;;;;;15.70;6.63;;;17.60;55.90;;;;;;4974433;28;20034;-72
2021/01/15 02:27:20;;;;;;;14.00;4.25;;;17.60;56.90;;;;;;4968698;28;20445;-72
2021/01/15 02:30:12;;;;;;;13.77;4.10;;;17.60;57.20;;;;;;4974767;28;20035;-72
2021/01/15 02:33:07;;;;;;;7.32;3.78;;;17.70;57.80;;;;;;4976910;28;20058;-72
2021/01/15 02:35:45;;;;;;;13.23;4.00;;;17.50;57.20;;;;;;4973944;28;20420;-72
2021/01/15 02:38:27;;;;;;;10.20;3.60;;;17.40;57.80;;;;;;4978239;28;20039;-73
2021/01/15 02:41:03;;;;;;;8.55;4.00;;;17.30;58.30;;;;;;4985992;28;20444;-71
2021/01/15 02:43:32;;;;;;;4.43;2.65;;;17.20;58.60;;;;;;4975370;28;20026;-72
2021/01/15 02:46:01;;;;;;;6.22;2.83;;;17.20;58.30;;;;;;4960327;28;20023;-73
2021/01/15 02:48:31;;;;;;;5.63;2.88;;;17.20;57.60;;;;;;4966523;28;20026;-72
2021/01/15 02:50:59;;;;;;;9.10;3.53;;;17.20;58.30;;;;;;4969755;28;20492;-72
2021/01/15 02:53:26;;;;;;;10.50;4.25;;;17.10;58.40;;;;;;4966935;28;20078;-71
2021/01/15 02:55:53;;;;;;;7.85;3.70;;;17.20;58.00;;;;;;4980459;28;20427;-71
2021/01/15 02:58:19;;;;;;;11.45;3.22;;;17.10;57.20;;;;;;4977453;28;20023;-72
2021/01/15 03:00:45;;;;;;;10.63;2.92;;;17.20;57.40;;;;;;4975626;28;20400;-72
2021/01/15 03:03:18;;;;;;;9.45;3.20;;;17.20;57.30;;;;;;4970340;28;20086;-72
2021/01/15 03:05:50;;;;;;;15.82;3.53;;;17.10;57.20;;;;;;4975749;28;20026;-71
2021/01/15 03:08:20;;;;;;;13.10;3.63;;;17.30;57.80;;;;;;4992909;28;20022;-71
2021/01/15 03:10:48;;;;;;;9.00;3.50;;;17.10;57.90;;;;;;4960688;28;20038;-72
2021/01/15 03:13:15;;;;;;;7.47;3.50;;;16.90;58.20;;;;;;4967850;28;20023;-72
2021/01/15 03:15:45;;;;;;;8.30;3.25;;;16.70;58.40;;;;;;4966927;28;20038;-73
2021/01/15 03:18:14;;;;;;;7.00;3.85;;;16.60;58.60;;;;;;4966450;28;20475;-74
2021/01/15 03:20:41;;;;;;;8.07;4.15;;;16.50;58.70;;;;;;4972613;28;20088;-74
2021/01/15 03:23:07;;;;;;;9.13;3.53;;;16.50;58.90;;;;;;4970349;28;20158;-73
2021/01/15 03:25:33;;;;;;;7.70;4.20;;;16.40;58.50;;;;;;4964507;28;20079;-71
2021/01/15 03:28:00;;;;;;;6.00;3.17;;;16.40;59.10;;;;;;4968167;28;20054;-71
2021/01/15 03:30:31;;;;;;;6.93;2.67;;;16.30;58.90;;;;;;4966324;28;20045;-71
2021/01/15 03:33:02;;;;;;;6.75;3.42;;;16.10;59.00;;;;;;4973206;28;20397;-71
2021/01/15 03:35:30;;;;;;;4.57;3.08;;;15.90;59.80;;;;;;4974764;28;20023;-72
2021/01/15 03:38:06;;;;;;;6.35;2.78;;;15.80;59.70;;;;;;4971013;28;20019;-72
2021/01/15 03:40:43;;;;;;;5.70;3.17;;;15.70;59.30;;;;;;4974200;28;20412;-72
2021/01/15 03:43:20;;;;;;;8.02;3.72;;;15.70;59.40;;;;;;4972301;28;20035;-74
2021/01/15 03:45:51;;;;;;;8.13;3.58;;;15.70;59.80;;;;;;4971892;28;20456;-71
2021/01/15 03:48:18;;;;;;;10.93;3.72;;;15.60;59.60;;;;;;4973558;28;20031;-73
2021/01/15 03:50:45;;;;;;;5.10;3.38;;;15.50;59.70;;;;;;4974984;28;20026;-74
2021/01/15 03:53:15;;;;;;;10.35;3.28;;;15.50;59.30;;;;;;4974534;28;20019;-72
2021/01/15 03:55:42;;;;;;;13.88;3.55;;;15.30;59.60;;;;;;4974723;28;20464;-73
2021/01/15 03:58:08;;;;;;;6.13;3.05;;;15.30;59.80;;;;;;4970003;28;20030;-72
2021/01/15 04:00:34;;;;;;;7.30;3.25;;;15.20;59.50;;;;;;4968074;28;20031;-73
2021/01/15 04:03:01;;;;;;;7.82;3.05;;;15.10;59.50;;;;;;4971517;28;20030;-71
2021/01/15 04:05:27;;;;;;;10.82;3.85;;;15.00;59.50;;;;;;4975023;28;20038;-70
2021/01/15 04:07:54;;;;;;;9.05;4.75;;;15.00;59.40;;;;;;4976245;28;20027;-70
2021/01/15 04:10:21;;;;;;;7.30;3.25;;;14.90;59.60;;;;;;4971065;28;20037;-70
2021/01/15 04:12:48;;;;;;;7.40;3.13;;;14.80;60.00;;;;;;4974378;28;20031;-71
2021/01/15 04:15:16;;;;;;;11.35;3.63;;;14.70;60.20;;;;;;4973346;28;20107;-71
2021/01/15 04:17:43;;;;;;;4.55;3.35;;;14.60;60.20;;;;;;4968929;28;20029;-71
2021/01/15 04:20:12;;;;;;;6.63;3.65;;;14.50;60.40;;;;;;4973449;28;20118;-72
2021/01/15 04:22:41;;;;;;;9.48;4.20;;;14.50;61.20;;;;;;4975110;28;20381;-73
2021/01/15 04:25:10;;;;;;;5.97;4.22;;;14.40;58.70;;;;;;4971519;28;20014;-72
2021/01/15 04:27:38;;;;;;;7.07;3.50;;;14.40;60.30;;;;;;4971803;28;20482;-71
2021/01/15 04:30:06;;;;;;;6.43;4.47;;;14.20;60.30;;;;;;4970848;28;20023;-71
2021/01/15 04:32:33;;;;;;;8.23;3.58;;;14.20;60.40;;;;;;4968764;28;20359;-71
2021/01/15 04:35:04;;;;;;;9.48;3.63;;;14.20;59.50;;;;;;4971069;28;20026;-72
2021/01/15 04:37:30;;;;;;;5.35;2.90;;;14.40;60.10;;;;;;4968520;28;20050;-71
2021/01/15 04:39:57;;;;;;;6.95;3.33;;;14.20;60.80;;;;;;4961592;28;20090;-72
2021/01/15 04:42:26;;;;;;;3.95;2.88;;;14.10;60.60;;;;;;4972101;28;20023;-71
2021/01/15 04:44:52;;;;;;;11.15;3.33;;;14.00;61.40;;;;;;4970408;28;20057;-73
2021/01/15 04:47:19;;;;;;;5.70;2.97;;;13.90;61.30;;;;;;4975032;28;20093;-74
2021/01/15 04:49:46;;;;;;;4.95;2.55;;;13.90;61.00;;;;;;4973351;28;20030;-72
2021/01/15 04:52:14;;;;;;;4.68;2.83;;;13.80;61.70;;;;;;4970820;28;20027;-71
2021/01/15 04:54:53;;;;;;;6.05;2.88;;;13.80;61.10;;;;;;4978471;28;20073;-69
2021/01/15 04:57:20;;;;;;;6.63;3.00;;;13.70;61.20;;;;;;4971373;28;20065;-69
2021/01/15 04:59:49;;;;;;;4.40;2.47;;;13.70;61.00;;;;;;4981127;28;20063;-70
2021/01/15 05:02:18;;;;;;;12.23;6.10;;;13.60;61.50;;;;;;4971753;28;20086;-71
2021/01/15 05:04:44;;;;;;;10.07;3.08;;;13.50;63.00;;;;;;4977682;28;20114;-70
2021/01/15 05:07:13;;;;;;;5.32;3.30;;;13.30;63.40;;;;;;4975261;28;20145;-70
2021/01/15 05:09:45;;;;;;;7.13;3.17;;;13.20;63.20;;;;;;4973312;28;20102;-71
2021/01/15 05:12:15;;;;;;;9.00;3.70;;;13.30;62.50;;;;;;4976407;28;20408;-70
2021/01/15 05:14:48;;;;;;;9.35;3.17;;;13.30;62.60;;;;;;4980751;28;20027;-71
2021/01/15 05:17:16;;;;;;;9.40;3.70;;;13.30;60.80;;;;;;4980880;28;20381;-70
2021/01/15 05:19:43;;;;;;;4.65;3.03;;;13.40;61.20;;;;;;4979074;28;20035;-70
2021/01/15 05:22:11;;;;;;;8.43;3.88;;;13.30;61.90;;;;;;4980550;28;20027;-70
2021/01/15 05:24:39;;;;;;;12.18;3.55;;;13.30;62.10;;;;;;4981001;28;20031;-71
2021/01/15 05:30:21;;;;;;;3.40;3.03;;;13.20;61.70;;;;;;4976745;28;20483;-71
2021/01/15 05:32:50;;;;;;;8.25;2.92;;;13.20;61.50;;;;;;4979210;28;20381;-70
2021/01/15 05:35:17;;;;;;;5.32;2.83;;;13.10;61.90;;;;;;4979824;28;20054;-70
2021/01/15 05:38:03;;;;;;;5.88;3.13;;;13.00;62.30;;;;;;4971822;28;20047;-70
2021/01/15 05:40:43;;;;;;;9.05;3.40;;;13.10;61.30;;;;;;4971598;28;20110;-70
2021/01/15 05:43:43;;;;;;;7.20;4.00;;;13.10;60.70;;;;;;4969244;28;20019;-70
2021/01/15 05:46:18;;;;;;;6.53;3.40;;;13.00;61.30;;;;;;4984915;28;20031;-71
2021/01/15 05:48:47;;;;;;;6.22;2.90;;;13.10;62.20;;;;;;4977716;28;20110;-71
2021/01/15 05:51:26;;;;;;;5.07;3.10;;;13.10;62.10;;;;;;4974324;28;20074;-70
2021/01/15 05:53:53;;;;;;;6.53;3.28;;;13.00;61.30;;;;;;4980193;28;20041;-69
2021/01/15 05:56:24;;;;;;;6.32;3.40;;;12.90;62.20;;;;;;4978343;28;20038;-70
2021/01/15 05:59:10;;;;;;;12.20;2.88;;;13.00;62.60;;;;;;4977913;28;20122;-70
2021/01/15 06:01:55;;;;;;;3.92;2.53;;;12.80;63.40;;;;;;4974899;28;20065;-71
2021/01/15 06:04:40;;;;;;;7.57;5.18;;;12.70;64.60;;;;;;4973342;28;20042;-73
2021/01/15 06:07:10;;;;;;;9.70;3.10;;;12.70;63.10;;;;;;4973075;28;20030;-71
2021/01/15 06:09:41;;;;;;;11.88;5.13;;;12.60;65.10;;;;;;4973480;28;20063;-70
2021/01/15 06:12:09;;;;;;;4.95;2.97;;;12.90;63.80;;;;;;4974910;28;20110;-70
2021/01/15 06:14:57;;;;;;;3.45;2.67;;;12.80;64.00;;;;;;4967259;28;20496;-70
2021/01/15 06:17:24;;;;;;;3.67;2.75;;;12.80;64.00;;;;;;4968954;28;20050;-70
2021/01/15 06:19:57;;;;;;;3.38;2.30;;;12.70;65.20;;;;;;4973988;28;20425;-70
2021/01/15 06:22:32;;;;;;;6.43;2.33;;;12.80;64.30;;;;;;4969698;28;20041;-71
2021/01/15 06:25:18;;;;;;;6.80;2.97;;;12.80;64.30;;;;;;4968312;28;20060;-70
2021/01/15 06:27:46;;;;;;;2.70;2.42;;;12.70;64.00;;;;;;4970828;28;20045;-70
2021/01/15 06:30:22;;;;;;;12.90;3.90;;;12.70;64.70;;;;;;4981058;28;20070;-70
2021/01/15 06:32:49;;;;;;;3.60;2.90;;;12.70;64.30;;;;;;4975599;28;20038;-73
2021/01/15 06:35:36;;;;;;;5.15;3.40;;;12.70;62.90;;;;;;4975275;28;20073;-71
2021/01/15 06:38:03;;;;;;;4.22;3.10;;;12.50;65.10;;;;;;4970655;28;20023;-71
2021/01/15 06:40:31;;;;;;;4.85;2.28;;;12.60;64.50;;;;;;4970007;28;20124;-70
2021/01/15 06:42:59;;;;;;;5.18;2.97;;;12.50;64.20;;;;;;4968446;28;20053;-70
2021/01/15 06:45:35;;;;;;;6.90;3.47;;;12.50;64.00;;;;;;4968359;28;20023;-71
2021/01/15 06:48:09;;;;;;;3.03;2.60;;;12.60;62.70;;;;;;4976580;28;20038;-70
2021/01/15 06:50:39;;;;;;;13.02;3.92;;;12.70;63.60;;;;;;4973788;28;20412;-71
2021/01/15 06:53:16;;;;;;;11.02;4.28;;;12.70;62.00;;;;;;4964927;28;20507;-70
2021/01/15 06:55:50;;;;;;;3.35;3.05;;;12.70;63.60;;;;;;4975717;28;20138;-70
2021/01/15 06:58:30;;;;;;;3.75;2.80;;;12.70;63.40;;;;;;4961846;28;20030;-70
2021/01/15 07:01:18;;;;;;;5.85;2.47;;;12.70;63.20;;;;;;4965360;28;20026;-70
2021/01/15 07:04:12;;;;;;;5.28;2.65;;;12.60;63.60;;;;;;4966008;28;20097;-71
2021/01/15 07:06:38;;;;;;;8.10;3.42;;;12.60;63.50;;;;;;4960907;28;20416;-70
2021/01/15 07:09:10;;;;;;;6.00;2.22;;;12.60;63.40;;;;;;4971783;28;20030;-70
2021/01/15 07:11:43;;;;;;;4.82;2.85;;;12.60;62.40;;;;;;4967019;28;20420;-70
2021/01/15 07:14:09;;;;;;;3.95;2.25;;;12.60;63.00;;;;;;4965607;28;20125;-70
2021/01/15 07:16:38;;;;;;;8.25;2.40;;;12.50;63.40;;;;;;4973114;28;20026;-71
2021/01/15 07:19:14;;;;;;;4.85;2.03;;;12.50;63.90;;;;;;4971366;28;20031;-70
2021/01/15 07:22:07;;;;;;;5.50;2.60;;;12.40;63.40;;;;;;4973339;28;20031;-71
2021/01/15 07:24:36;;;;;;;4.57;2.38;;;12.40;62.50;;;;;;4970490;28;20074;-71
2021/01/15 07:27:05;;;;;;;4.93;2.42;;;12.30;63.40;;;;;;4965307;28;20118;-71
2021/01/15 07:29:40;;;;;;;4.07;2.30;;;12.30;63.40;;;;;;4968211;28;20105;-71
2021/01/15 07:32:23;;;;;;;4.82;2.60;;;12.20;64.20;;;;;;4970843;28;20026;-72
2021/01/15 07:34:53;;;;;;;3.40;2.83;;;12.10;63.90;;;;;;4967528;28;20027;-71
2021/01/15 07:37:31;;;;;;;7.07;2.90;;;12.10;62.40;;;;;;4968004;28;20061;-71
2021/01/15 07:40:03;;;;;;;6.07;2.85;;;12.20;62.30;;;;;;4970440;28;20027;-71
2021/01/15 07:42:39;;;;;;;3.55;2.83;;;12.10;63.70;;;;;;4966794;28;20037;-71
2021/01/15 07:45:06;;;;;;;2.78;2.58;;;12.10;63.20;;;;;;4962419;28;20059;-71
2021/01/15 07:47:37;;;;;;;2.63;2.40;;;12.00;64.20;;;;;;4970678;28;20031;-70
2021/01/15 07:50:06;;;;;;;4.00;2.38;;;11.90;64.50;;;;;;4967666;28;20448;-69
2021/01/15 07:52:33;;;;;;;5.22;2.97;;;11.90;64.30;;;;;;4974160;28;20034;-71
2021/01/15 07:55:00;;;;;;;7.25;2.88;;;11.90;64.10;;;;;;4976386;28;20392;-70
2021/01/15 07:57:29;;;;;;;8.88;2.80;;;12.00;63.60;;;;;;4976063;28;20035;-70
2021/01/15 07:59:56;;;;;;;3.05;2.83;;;11.90;63.70;;;;;;4968029;28;20027;-70
2021/01/15 08:02:22;;;;;;;5.30;3.38;;;11.80;63.60;;;;;;4975801;28;20368;-70
2021/01/15 08:04:49;;;;;;;3.72;2.90;;;11.80;64.20;;;;;;4972904;28;20031;-70
2021/01/15 08:07:26;;;;;;;3.95;2.92;;;11.80;62.80;;;;;;4970160;28;20345;-69
2021/01/15 08:09:52;;;;;;;4.78;3.40;;;11.80;64.40;;;;;;4970001;28;20035;-70
2021/01/15 08:12:19;;;;;;;4.78;2.70;;;11.80;64.20;;;;;;4971006;28;20029;-69
2021/01/15 08:14:45;;;;;;;4.93;2.50;;;11.70;64.70;;;;;;4972010;28;20033;-69
2021/01/15 08:17:14;;;;;;;5.20;2.85;;;11.60;65.60;;;;;;4966545;28;20018;-70
2021/01/15 08:19:42;;;;;;;6.70;3.60;;;11.50;65.60;;;;;;4976933;28;20093;-71
2021/01/15 08:22:14;;;;;;;8.00;3.00;;;11.50;64.90;;;;;;4971754;28;20102;-69
2021/01/15 08:24:47;;;;;;;9.05;2.60;;;11.60;64.30;;;;;;4975333;28;20037;-70
2021/01/15 08:27:18;;;;;;;7.28;4.15;;;11.60;63.10;;;;;;4971964;28;20038;-70
2021/01/15 08:29:45;;;;;;;4.82;3.85;;;11.60;63.50;;;;;;4975715;28;20428;-69
2021/01/15 08:32:13;;;;;;;3.60;3.30;;;11.50;63.80;;;;;;4969049;28;20062;-70
2021/01/15 08:34:40;;;;;;;5.18;3.47;;;11.50;64.40;;;;;;4972644;28;20027;-70
2021/01/15 08:37:09;;;;;;;6.38;2.85;;;11.40;64.40;;;;;;4974658;28;20029;-70
2021/01/15 08:39:55;;;;;;;9.57;3.67;;;11.40;64.20;;;;;;4974656;28;20023;-71
2021/01/15 08:42:22;;;;;;;7.53;3.55;;;11.40;63.90;;;;;;4975907;28;20076;-71
2021/01/15 08:44:50;;;;;;;4.70;3.17;;;11.40;63.00;;;;;;4962081;28;20510;-71
2021/01/15 08:47:21;;;;;;;4.80;3.03;;;11.60;64.10;;;;;;4972371;28;20153;-70
2021/01/15 08:49:55;;;;;;;7.60;2.72;;;11.40;64.60;;;;;;4971998;28;20030;-71
2021/01/15 08:52:31;;;;;;;15.15;3.40;;;11.30;65.30;;;;;;4967205;28;20085;-71
2021/01/15 08:55:00;;;;;;;6.65;3.30;;;11.10;67.60;;;;;;4975701;28;20483;-71
2021/01/15 08:57:30;;;;;;;4.50;2.88;;;11.10;66.40;;;;;;4972029;28;20062;-70
2021/01/15 09:00:22;;;;;;;12.57;4.28;;;11.20;65.60;;;;;;4966221;28;20527;-70
2021/01/15 09:02:51;;;;;;;4.47;3.35;;;11.20;65.00;;;;;;4971044;28;20034;-70
2021/01/15 09:05:23;;;;;;;3.97;3.55;;;11.20;65.00;;;;;;4975461;28;20389;-70
2021/01/15 09:07:52;;;;;;;4.30;2.95;;;11.20;64.20;;;;;;4974572;28;20023;-70
2021/01/15 09:10:19;;;;;;;5.57;3.00;;;11.20;65.00;;;;;;4973778;28;20436;-70
2021/01/15 09:12:49;;;;;;;3.65;3.35;;;11.10;65.20;;;;;;4974182;28;20031;-70
2021/01/15 09:15:26;;;;;;;6.90;4.20;;;11.10;65.30;;;;;;4975117;28;20023;-70
2021/01/15 09:17:54;;;;;;;13.00;3.47;;;11.10;64.20;;;;;;4974397;28;20026;-71
2021/01/15 09:20:20;;;;;;;5.22;3.03;;;11.20;63.60;;;;;;4975073;28;20027;-71
2021/01/15 09:22:47;;;;;;;12.70;3.35;;;11.20;65.10;;;;;;4974789;28;20031;-71
2021/01/15 09:25:14;;;;;;;5.03;2.88;;;11.10;63.60;;;;;;4974582;28;20033;-71
2021/01/15 09:27:41;;;;;;;4.97;3.88;;;11.10;64.00;;;;;;4974782;28;20460;-70
2021/01/15 09:30:09;;;;;;;5.85;3.38;;;11.20;64.80;;;;;;4975331;28;20027;-70
2021/01/15 09:32:35;;;;;;;5.25;2.90;;;11.10;64.40;;;;;;4980088;28;20029;-71
2021/01/15 09:35:02;;;;;;;6.78;2.80;;;11.00;65.00;;;;;;4955566;28;20361;-69
2021/01/15 09:37:28;;;;;;;9.10;3.10;;;11.00;65.60;;;;;;4971143;28;20034;-71
2021/01/15 09:39:55;;;;;;;6.43;3.10;;;11.00;64.00;;;;;;4975223;28;20033;-70
2021/01/15 09:42:21;;;;;;;3.50;3.05;;;11.00;63.90;;;;;;4978628;28;20101;-69
2021/01/15 09:44:47;;;;;;;5.97;3.45;;;10.90;65.80;;;;;;4978895;28;20034;-70
2021/01/15 09:47:14;;;;;;;5.70;3.38;;;10.80;66.10;;;;;;4979518;28;20030;-70
2021/01/15 09:49:40;;;;;;;7.80;3.40;;;10.80;64.80;;;;;;4978728;28;20030;-70
2021/01/15 09:52:07;;;;;;;6.45;3.47;;;11.00;65.80;;;;;;4978732;28;20101;-70
2021/01/15 09:54:33;;;;;;;4.88;3.45;;;11.10;65.60;;;;;;4968984;28;20023;-71
2021/01/15 09:57:01;;;;;;;10.43;3.28;;;11.00;66.30;;;;;;4968522;28;20031;-75
2021/01/15 09:59:28;;;;;;;3.22;2.92;;;10.90;66.10;;;;;;4981970;28;20034;-72
2021/01/15 10:01:54;;;;;;;4.05;3.22;;;10.80;66.50;;;;;;4978293;28;20364;-70
2021/01/15 10:04:21;;;;;;;10.57;3.28;;;10.80;66.60;;;;;;4978112;28;20035;-70
2021/01/15 10:06:48;;;;;;;5.55;3.17;;;10.70;66.80;;;;;;4973123;28;20504;-71
2021/01/15 10:09:15;;;;;;;10.55;3.38;;;10.80;65.30;;;;;;4967435;28;20064;-71
2021/01/15 10:11:47;;;;;;;9.63;3.38;;;10.80;65.60;;;;;;4972464;28;20110;-69
2021/01/15 10:14:15;;;;;;;6.00;3.22;;;10.90;65.20;;;;;;4977636;28;20023;-70
2021/01/15 10:16:44;;;;;;;4.32;3.67;;;10.80;65.10;;;;;;4964531;28;20445;-70
2021/01/15 10:19:11;;;;;;;6.65;3.65;;;10.80;65.60;;;;;;4976690;28;20054;-69
2021/01/15 10:21:39;;;;;;;4.13;3.72;;;10.80;65.70;;;;;;4977327;28;20027;-70
2021/01/15 10:24:08;;;;;;;8.35;3.97;;;10.80;65.80;;;;;;4975973;28;20031;-70
2021/01/15 10:26:36;;;;;;;6.20;3.78;;;10.90;66.20;;;;;;4978616;28;20023;-70
2021/01/15 10:29:06;;;;;;;5.35;4.00;;;10.90;66.00;;;;;;4995809;28;20049;-70
2021/01/15 10:31:56;;;;;;;5.70;4.40;;;11.10;67.40;;;;;;4994989;28;20035;-70
2021/01/15 10:34:23;;;;;;;4.90;3.67;;;11.20;67.50;;;;;;4991700;28;20029;-72
2021/01/15 10:36:51;;;;;;;8.50;3.78;;;11.30;67.70;;;;;;4998099;28;20030;-73
2021/01/15 10:39:18;;;;;;;3.65;2.78;;;11.20;66.50;;;;;;4999727;28;20050;-70
2021/01/15 10:41:46;;;;;;;6.70;3.22;;;11.10;66.90;;;;;;4996737;28;20031;-70
2021/01/15 10:44:16;;;;;;;6.55;3.33;;;11.20;67.40;;;;;;4997029;28;20106;-71
2021/01/15 10:46:47;;;;;;;3.53;3.22;;;11.30;67.60;;;;;;4991868;28;20034;-69
2021/01/15 10:49:17;;;;;;;5.07;3.25;;;11.30;66.80;;;;;;4995906;28;20068;-69
2021/01/15 10:51:48;;;;;;;6.95;4.63;;;11.10;66.80;;;;;;4998686;28;20117;-70
2021/01/15 10:54:15;;;;;;;6.10;3.38;;;11.00;66.50;;;;;;4991495;28;20049;-69
2021/01/15 10:56:46;;;;;;;4.40;3.53;;;11.10;67.80;;;;;;4996779;28;20014;-71
2021/01/15 10:59:14;;;;;;;4.40;3.17;;;11.10;67.40;;;;;;4995773;28;20519;-70
2021/01/15 11:01:44;;;;;;;5.82;3.65;;;10.90;67.30;;;;;;4997057;28;20384;-71
2021/01/15 11:04:13;;;;;;;5.95;2.90;;;10.90;66.90;;;;;;4996396;28;20579;-69
2021/01/15 11:06:41;;;;;;;6.50;2.92;;;11.10;67.80;;;;;;4996738;28;20109;-69
2021/01/15 11:09:09;;;;;;;4.28;3.80;;;11.10;67.00;;;;;;4996138;28;20109;-69
2021/01/15 11:11:36;;;;;;;6.00;3.70;;;11.20;67.90;;;;;;4996725;28;20038;-69
2021/01/15 11:14:03;;;;;;;6.10;3.70;;;11.30;67.00;;;;;;4996256;28;20351;-69
2021/01/15 11:16:29;;;;;;;5.25;3.13;;;11.40;68.10;;;;;;4996166;28;20018;-69
2021/01/15 11:18:55;;;;;;;7.90;3.88;;;11.40;67.40;;;;;;4996219;28;20018;-69
2021/01/15 11:21:26;;;;;;;7.22;3.60;;;11.40;67.80;;;;;;4996649;28;20505;-69
2021/01/15 11:23:53;;;;;;;12.75;6.15;;;11.50;67.80;;;;;;4995378;28;20031;-69
2021/01/15 11:26:28;;;;;;;8.68;3.30;;;11.40;67.60;;;;;;4996450;28;20037;-69
2021/01/15 11:28:56;;;;;;;5.97;3.88;;;11.20;67.40;;;;;;4995757;28;20490;-69
2021/01/15 11:31:23;;;;;;;12.98;3.70;;;11.20;68.10;;;;;;4996103;28;20030;-69
2021/01/15 11:33:50;;;;;;;7.22;3.92;;;11.30;67.90;;;;;;4992788;28;20035;-69
2021/01/15 11:36:17;;;;;;;8.25;3.40;;;11.40;68.10;;;;;;4986337;28;20042;-70
2021/01/15 11:38:45;;;;;;;4.30;3.53;;;11.30;68.80;;;;;;4994215;28;20027;-69
2021/01/15 11:41:16;;;;;;;4.65;3.20;;;11.30;69.50;;;;;;4993518;28;20034;-70
2021/01/15 11:43:44;;;;;;;3.85;3.00;;;11.30;68.50;;;;;;4995821;28;20036;-70
2021/01/15 11:46:11;;;;;;;5.97;3.40;;;11.30;69.40;;;;;;4995543;28;20030;-69
2021/01/15 11:48:40;;;;;;;8.55;4.22;;;11.20;69.40;;;;;;4995584;28;20033;-70
2021/01/15 11:51:09;;;;;;;3.80;3.50;;;11.30;69.30;;;;;;4981322;28;20062;-71
2021/01/15 11:53:37;;;;;;;4.57;3.63;;;11.30;68.40;;;;;;4995131;28;20015;-69
2021/01/15 11:56:05;;;;;;;8.63;3.35;;;11.40;68.20;;;;;;4995720;28;20026;-70
2021/01/15 11:58:32;;;;;;;4.35;3.95;;;11.30;68.40;;;;;;4996492;28;20113;-69
2021/01/15 12:00:59;;;;;;;8.45;4.03;;;11.30;68.50;;;;;;4995828;28;20049;-70
2021/01/15 12:03:26;;;;;;;4.70;3.45;;;11.40;68.20;;;;;;4993355;28;20359;-70
2021/01/15 12:05:53;;;;;;;11.15;5.22;;;11.40;67.80;;;;;;4995869;28;20109;-70
2021/01/15 12:08:20;;;;;;;6.43;4.05;;;11.40;67.70;;;;;;4995292;28;20030;-69
2021/01/15 12:10:55;;;;;;;6.47;3.97;;;11.40;68.10;;;;;;4994632;28;20030;-70
2021/01/15 12:13:25;;;;;;;4.38;3.70;;;11.40;67.60;;;;;;4995081;28;20050;-69
2021/01/15 12:15:52;;;;;;;5.28;3.28;;;11.20;68.80;;;;;;4995046;28;20022;-69
2021/01/15 12:18:19;;;;;;;5.03;3.00;;;11.10;69.10;;;;;;4995555;28;20026;-69
2021/01/15 12:20:46;;;;;;;7.45;3.65;;;11.00;69.40;;;;;;4995566;28;20029;-70
2021/01/15 12:23:14;;;;;;;8.82;3.42;;;10.90;68.70;;;;;;4995138;28;20105;-70
2021/01/15 12:25:40;;;;;;;5.40;3.10;;;10.90;70.20;;;;;;4994345;28;20022;-71
2021/01/15 12:28:15;;;;;;;4.40;3.33;;;10.80;69.70;;;;;;4992993;28;20038;-70
2021/01/15 12:30:46;;;;;;;3.22;2.92;;;10.80;69.30;;;;;;4981200;28;20376;-69
2021/01/15 12:33:14;;;;;;;3.25;2.65;;;10.70;69.40;;;;;;4995229;28;20037;-69
2021/01/15 12:35:43;;;;;;;6.13;3.08;;;10.70;69.50;;;;;;4995181;28;20037;-70
2021/01/15 12:38:11;;;;;;;3.63;3.10;;;10.60;69.20;;;;;;4994214;28;20045;-70
2021/01/15 12:40:38;;;;;;;6.00;3.30;;;10.70;68.30;;;;;;4994918;28;20404;-70
2021/01/15 12:43:06;;;;;;;7.22;3.22;;;10.60;69.70;;;;;;4994227;28;20069;-69
2021/01/15 12:45:38;;;;;;;4.28;2.88;;;10.50;69.60;;;;;;5000433;28;20014;-70
2021/01/15 12:48:06;;;;;;;4.03;3.72;;;10.50;69.40;;;;;;4991663;28;20027;-72
2021/01/15 12:50:33;;;;;;;6.78;3.40;;;10.50;69.40;;;;;;4996087;28;20085;-71
2021/01/15 12:52:59;;;;;;;4.07;3.20;;;10.60;68.40;;;;;;4997267;28;20014;-72
2021/01/15 12:55:27;;;;;;;5.35;3.40;;;10.50;69.20;;;;;;4996758;28;20023;-70
2021/01/15 12:57:55;;;;;;;6.80;3.33;;;10.50;69.30;;;;;;4993983;28;20476;-70
2021/01/15 13:00:22;;;;;;;4.80;3.03;;;10.40;69.90;;;;;;4991667;28;20364;-70
2021/01/15 13:02:49;;;;;;;8.45;3.25;;;10.40;69.80;;;;;;4987099;28;20038;-72